createdAt,value
2023-03-13T00:01:18.065Z,99077.88
2023-03-13T00:03:45.047Z,99057.88
2023-03-13T00:06:11.658Z,99096.75
2023-03-13T00:08:38.722Z,99068.84
2023-03-13T00:11:07.326Z,99104.09
2023-03-13T00:13:34.852Z,99124.97
2023-03-13T00:16:07.198Z,99070.88
2023-03-13T00:18:34.312Z,99010.44
2023-03-13T00:21:03.057Z,99019.78
2023-03-13T00:23:30.263Z,99062.47
2023-03-13T00:25:58.537Z,99082.94
2023-03-13T00:28:25.232Z,99071.91
2023-03-13T00:30:51.706Z,99022.22
2023-03-13T00:33:18.483Z,99056.09
2023-03-13T00:35:45.171Z,99001.16
2023-03-13T00:38:11.812Z,99069.03
2023-03-13T00:40:38.872Z,99040.47
2023-03-13T00:43:05.522Z,98957.47
2023-03-13T00:45:31.948Z,98979.44
2023-03-13T00:47:58.447Z,99002.25
2023-03-13T00:50:24.993Z,99026.25
2023-03-13T00:52:51.500Z,98952.44
2023-03-13T00:55:17.947Z,99032.38
2023-03-13T00:57:44.537Z,99038.53
2023-03-13T01:00:11.804Z,99029.31
2023-03-13T01:02:44.578Z,99016.25
2023-03-13T01:05:11.388Z,98973.03
2023-03-13T01:07:37.858Z,98971.03
2023-03-13T01:10:04.831Z,99014.94
2023-03-13T01:12:31.295Z,98995.34
2023-03-13T01:14:57.739Z,98965.50
2023-03-13T01:17:24.364Z,98935.06
2023-03-13T01:19:50.859Z,98981.16
2023-03-13T01:22:18.706Z,98960.41
2023-03-13T01:24:46.322Z,98946.03
2023-03-13T01:27:12.837Z,98947.19
2023-03-13T01:29:39.541Z,98953.59
2023-03-13T01:32:06.497Z,98951.47
2023-03-13T01:34:33.061Z,98946.53
2023-03-13T01:36:59.517Z,98940.34
2023-03-13T01:39:26.014Z,98919.53
2023-03-13T01:41:52.523Z,98925.44
2023-03-13T01:44:28.192Z,98869.28
2023-03-13T01:46:54.664Z,98873.22
2023-03-13T01:49:25.244Z,98900.63
2023-03-13T01:51:59.912Z,98883.09
2023-03-13T01:54:33.494Z,98885.16
2023-03-13T01:57:31.896Z,98883.50
2023-03-13T02:00:13.282Z,98894.91
2023-03-13T02:02:43.982Z,98892.06
2023-03-13T02:05:10.769Z,98899.47
2023-03-13T02:07:43.552Z,98891.19
2023-03-13T02:12:46.970Z,98817.47
2023-03-13T02:15:16.463Z,98862.31
2023-03-13T02:17:44.562Z,98823.88
2023-03-13T02:20:12.640Z,98771.00
2023-03-13T02:22:58.781Z,98705.06
2023-03-13T02:25:25.337Z,98754.06
2023-03-13T02:28:00.723Z,98740.84
2023-03-13T02:30:27.783Z,98714.50
2023-03-13T02:32:55.743Z,98723.91
2023-03-13T02:35:23.655Z,98696.72
2023-03-13T02:37:53.933Z,98645.56
2023-03-13T02:40:47.850Z,98702.59
2023-03-13T02:43:21.112Z,98592.59
2023-03-13T02:46:06.407Z,98604.47
2023-03-13T02:48:39.886Z,98593.56
2023-03-13T02:51:28.083Z,98520.78
2023-03-13T02:53:58.871Z,98443.00
2023-03-13T02:56:28.248Z,98392.38
2023-03-13T02:58:54.833Z,98309.09
2023-03-13T03:01:21.521Z,98267.09
2023-03-13T03:03:48.897Z,98222.47
2023-03-13T03:06:15.409Z,98173.13
2023-03-13T03:08:43.903Z,98056.72
2023-03-13T03:11:11.057Z,98131.75
2023-03-13T03:13:37.731Z,98123.41
2023-03-13T03:16:08.821Z,98098.81
2023-03-13T03:18:37.079Z,98112.56
2023-03-13T03:21:06.568Z,98122.88
2023-03-13T03:23:34.137Z,97713.16
2023-03-13T03:26:01.733Z,97655.81
2023-03-13T03:28:28.673Z,97573.72
2023-03-13T03:30:55.652Z,97478.09
2023-03-13T03:33:23.566Z,97413.03
2023-03-13T03:35:51.147Z,97655.31
2023-03-13T03:38:17.803Z,97705.66
2023-03-13T03:40:44.589Z,97813.91
2023-03-13T03:43:11.070Z,97832.09
2023-03-13T03:45:37.646Z,97860.22
2023-03-13T03:48:04.458Z,97832.19
2023-03-13T03:50:30.939Z,97856.34
2023-03-13T03:52:57.393Z,97806.00
2023-03-13T03:55:23.878Z,97553.56
2023-03-13T03:57:50.393Z,97468.75
2023-03-13T04:00:17.569Z,97518.31
2023-03-13T04:02:44.391Z,97554.84
2023-03-13T04:05:10.876Z,97536.53
2023-03-13T04:07:37.531Z,97565.25
2023-03-13T04:10:05.275Z,97508.03
2023-03-13T04:12:31.791Z,97480.22
2023-03-13T04:14:58.290Z,97524.88
2023-03-13T04:17:24.974Z,97498.66
2023-03-13T04:19:51.453Z,97347.78
2023-03-13T04:22:17.979Z,97509.63
2023-03-13T04:24:44.457Z,97452.09
2023-03-13T04:27:10.946Z,97538.09
2023-03-13T04:29:37.421Z,97474.53
2023-03-13T04:32:04.209Z,97503.63
2023-03-13T04:34:30.873Z,97456.34
2023-03-13T04:36:57.451Z,97423.44
2023-03-13T04:39:25.426Z,97444.13
2023-03-13T04:41:52.886Z,97415.88
2023-03-13T04:44:19.975Z,97438.47
2023-03-13T04:46:46.640Z,97390.94
2023-03-13T04:49:14.642Z,97451.69
2023-03-13T04:51:42.966Z,97467.22
2023-03-13T04:54:10.286Z,97439.72
2023-03-13T04:56:43.567Z,97431.78
2023-03-13T04:59:15.030Z,97481.41
2023-03-13T05:01:42.386Z,97496.03
2023-03-13T05:04:09.668Z,97523.56
2023-03-13T05:06:36.511Z,97601.47
2023-03-13T05:09:03.742Z,97567.84
2023-03-13T05:11:30.525Z,97552.44
2023-03-13T05:13:57.166Z,97511.41
2023-03-13T05:16:23.745Z,97194.03
2023-03-13T05:18:50.334Z,97000.56
2023-03-13T05:21:16.902Z,97123.03
2023-03-13T05:23:43.390Z,96929.34
2023-03-13T05:26:09.871Z,99260.00
2023-03-13T05:28:36.415Z,99199.75
2023-03-13T05:31:02.972Z,99137.91
2023-03-13T05:33:30.614Z,99083.00
2023-03-13T05:35:57.119Z,99070.19
2023-03-13T05:38:23.789Z,99109.00
2023-03-13T05:40:50.265Z,99069.50
2023-03-13T05:43:16.803Z,99033.16
2023-03-13T05:45:43.311Z,99083.28
2023-03-13T05:48:10.084Z,99065.94
2023-03-13T05:50:36.614Z,99035.25
2023-03-13T05:53:03.115Z,99066.19
2023-03-13T05:55:29.701Z,99087.81
2023-03-13T05:57:56.279Z,99016.25
2023-03-13T06:00:23.222Z,99064.22
2023-03-13T06:02:49.771Z,99019.84
2023-03-13T06:05:16.423Z,99072.47
2023-03-13T06:07:42.921Z,99070.84
2023-03-13T06:10:10.298Z,99105.56
2023-03-13T06:12:36.831Z,99142.97
2023-03-13T06:15:03.556Z,99164.94
2023-03-13T06:17:30.018Z,99142.66
2023-03-13T06:19:57.746Z,99111.25
2023-03-13T06:22:24.240Z,98970.66
2023-03-13T06:24:50.723Z,98944.75
2023-03-13T06:27:17.455Z,98947.72
2023-03-13T06:29:43.972Z,99098.50
2023-03-13T06:32:12.039Z,99164.72
2023-03-13T06:34:39.075Z,99170.41
2023-03-13T06:37:05.653Z,99106.44
2023-03-13T06:39:32.364Z,98995.09
2023-03-13T06:41:58.849Z,99030.19
2023-03-13T06:44:25.743Z,99129.34
2023-03-13T06:46:53.698Z,99121.88
2023-03-13T06:49:20.325Z,99117.84
2023-03-13T06:51:46.804Z,99063.94
2023-03-13T06:54:13.427Z,98898.16
2023-03-13T06:56:39.968Z,99081.84
2023-03-13T06:59:07.667Z,97799.50
2023-03-13T07:01:34.325Z,97705.75
2023-03-13T07:04:00.960Z,97651.00
2023-03-13T07:06:27.760Z,97647.72
2023-03-13T07:08:54.254Z,97660.84
2023-03-13T07:11:21.084Z,97636.41
2023-03-13T07:13:47.535Z,97618.78
2023-03-13T07:16:14.394Z,97600.66
2023-03-13T07:18:47.409Z,97637.56
2023-03-13T07:21:14.428Z,97771.47
2023-03-13T07:23:41.238Z,97706.41
2023-03-13T07:26:12.296Z,97675.56
2023-03-13T07:28:38.983Z,97630.47
2023-03-13T07:31:16.958Z,97594.88
2023-03-13T07:33:45.077Z,97660.44
2023-03-13T07:36:13.587Z,97649.88
2023-03-13T07:38:40.126Z,97674.88
2023-03-13T07:41:07.141Z,97683.38
2023-03-13T07:43:33.833Z,97684.09
2023-03-13T07:46:06.011Z,98993.91
2023-03-13T07:48:35.578Z,98899.13
2023-03-13T07:51:02.938Z,98982.00
2023-03-13T07:53:29.952Z,99002.63
2023-03-13T07:55:59.733Z,98927.84
2023-03-13T07:58:29.002Z,97964.59
2023-03-13T08:00:55.825Z,97684.47
2023-03-13T08:03:23.354Z,97631.31
2023-03-13T08:06:08.312Z,97625.53
2023-03-13T08:08:35.578Z,97613.31
2023-03-13T08:11:05.215Z,97621.16
2023-03-13T08:13:33.289Z,97575.84
2023-03-13T08:16:06.884Z,97599.84
2023-03-13T08:18:35.118Z,97532.38
2023-03-13T08:21:13.244Z,97604.38
2023-03-13T08:23:39.936Z,97565.88
2023-03-13T08:26:11.280Z,97608.47
2023-03-13T08:28:38.745Z,97603.34
2023-03-13T08:31:23.190Z,97600.38
2023-03-13T08:33:50.106Z,97501.28
2023-03-13T08:36:26.821Z,97588.94
2023-03-13T08:38:55.326Z,97589.41
2023-03-13T08:41:24.920Z,97595.16
2023-03-13T08:43:55.713Z,97536.41
2023-03-13T08:46:23.212Z,97667.53
2023-03-13T08:48:51.442Z,97654.66
2023-03-13T08:51:19.883Z,97612.34
2023-03-13T08:53:46.842Z,97585.19
2023-03-13T08:56:15.831Z,97578.28
2023-03-13T08:58:42.737Z,97541.03
2023-03-13T09:01:13.591Z,97553.88
2023-03-13T09:03:41.166Z,97548.22
2023-03-13T09:06:09.008Z,97561.28
2023-03-13T09:08:36.182Z,97573.22
2023-03-13T09:11:06.959Z,97483.69
2023-03-13T09:13:36.757Z,97487.16
2023-03-13T09:16:21.405Z,97485.16
2023-03-13T09:18:49.331Z,97506.38
2023-03-13T09:21:24.632Z,97428.38
2023-03-13T09:23:51.809Z,97479.94
2023-03-13T09:26:22.661Z,97444.06
2023-03-13T09:28:50.218Z,97491.19
2023-03-13T09:31:28.634Z,97552.00
2023-03-13T09:33:55.332Z,97547.69
2023-03-13T09:36:23.987Z,97533.31
2023-03-13T09:38:52.805Z,97562.78
2023-03-13T09:41:34.477Z,97568.53
2023-03-13T09:44:00.944Z,97591.75
2023-03-13T09:46:46.253Z,97610.03
2023-03-13T09:49:29.156Z,97605.91
2023-03-13T09:52:10.534Z,97591.31
2023-03-13T09:54:43.912Z,97606.34
2023-03-13T09:57:20.067Z,97574.28
2023-03-13T10:00:00.654Z,97533.66
2023-03-13T10:02:31.061Z,97614.59
2023-03-13T10:05:05.420Z,97634.97
2023-03-13T10:07:31.871Z,97545.38
2023-03-13T10:10:01.449Z,97625.44
2023-03-13T10:12:29.939Z,97725.53
2023-03-13T10:15:14.975Z,97730.94
2023-03-13T10:17:41.570Z,97708.91
2023-03-13T10:20:10.790Z,97786.34
2023-03-13T10:22:38.261Z,97775.59
2023-03-13T10:25:10.191Z,97825.63
2023-03-13T10:27:44.833Z,97833.63
2023-03-13T10:30:35.551Z,97865.84
2023-03-13T10:33:26.360Z,97848.91
2023-03-13T10:36:07.155Z,97854.25
2023-03-13T10:38:45.423Z,97855.56
2023-03-13T10:41:33.314Z,97949.88
2023-03-13T10:44:04.462Z,97988.78
2023-03-13T10:46:33.712Z,98006.06
2023-03-13T10:49:03.195Z,98030.59
2023-03-13T10:51:37.845Z,98098.75
2023-03-13T10:54:16.491Z,98219.28
2023-03-13T10:56:43.166Z,98320.16
2023-03-13T10:59:42.637Z,98366.56
2023-03-13T11:02:39.687Z,98345.63
2023-03-13T11:05:31.407Z,98318.47
2023-03-13T11:07:58.035Z,98294.34
2023-03-13T11:10:30.001Z,98278.41
2023-03-13T11:12:58.276Z,98279.78
2023-03-13T11:15:49.353Z,98289.50
2023-03-13T11:18:26.091Z,98304.72
2023-03-13T11:20:52.704Z,98318.94
2023-03-13T11:23:21.807Z,98548.59
2023-03-13T11:26:06.564Z,98650.88
2023-03-13T11:28:51.429Z,98703.81
2023-03-13T11:31:28.859Z,98756.84
2023-03-13T11:34:05.494Z,98719.97
2023-03-13T11:36:34.812Z,98945.31
2023-03-13T11:39:07.410Z,99049.31
2023-03-13T11:42:09.375Z,99059.06
2023-03-13T11:45:05.327Z,99053.38
2023-03-13T11:47:50.492Z,99037.13
2023-03-13T11:50:29.882Z,98940.97
2023-03-13T11:53:29.001Z,98985.72
2023-03-13T11:56:03.763Z,98962.53
2023-03-13T11:58:46.573Z,98926.19
2023-03-13T12:01:30.123Z,98914.66
2023-03-13T12:04:17.032Z,98939.19
2023-03-13T12:06:58.727Z,98968.91
2023-03-13T12:09:31.754Z,98993.91
2023-03-13T12:12:05.262Z,98967.50
2023-03-13T12:14:53.929Z,98964.06
2023-03-13T12:17:39.202Z,98954.59
2023-03-13T12:20:14.321Z,98966.06
2023-03-13T12:22:54.872Z,98988.31
2023-03-13T12:25:25.570Z,99016.88
2023-03-13T12:27:58.407Z,98904.69
2023-03-13T12:30:39.208Z,99021.25
2023-03-13T12:33:23.651Z,99028.78
2023-03-13T12:36:14.848Z,99051.00
2023-03-13T12:38:49.664Z,99029.69
2023-03-13T12:41:24.802Z,99031.13
2023-03-13T12:44:07.800Z,99042.91
2023-03-13T12:46:41.192Z,99020.31
2023-03-13T12:49:36.425Z,99033.16
2023-03-13T12:52:32.427Z,99045.28
2023-03-13T12:55:23.009Z,99027.66
2023-03-13T12:58:17.403Z,99027.31
2023-03-13T13:00:46.267Z,99032.56
2023-03-13T13:03:36.569Z,99041.19
2023-03-13T13:06:08.478Z,99038.66
2023-03-13T13:09:03.068Z,99034.13
2023-03-13T13:11:35.677Z,99018.19
2023-03-13T13:14:24.920Z,99035.88
2023-03-13T13:17:16.612Z,99008.91
2023-03-13T13:19:47.705Z,98971.78
2023-03-13T13:22:39.041Z,99002.53
2023-03-13T13:25:11.524Z,99007.91
2023-03-13T13:27:38.061Z,99016.97
2023-03-13T13:30:25.667Z,99005.53
2023-03-13T13:32:57.131Z,99009.13
2023-03-13T13:35:28.290Z,98986.78
2023-03-13T13:38:22.373Z,98978.56
2023-03-13T13:40:59.136Z,98971.47
2023-03-13T13:43:28.193Z,98974.25
2023-03-13T13:46:28.779Z,98975.97
2023-03-13T13:49:07.875Z,98976.44
2023-03-13T13:51:37.262Z,98967.28
2023-03-13T13:54:25.845Z,98975.69
2023-03-13T13:57:01.984Z,98957.63
2023-03-13T13:59:34.676Z,98955.06
2023-03-13T14:02:04.292Z,98948.41
2023-03-13T14:04:38.061Z,98923.91
2023-03-13T14:07:06.114Z,98881.00
2023-03-13T14:09:53.515Z,98912.25
2023-03-13T14:12:31.205Z,98937.34
2023-03-13T14:15:18.158Z,98934.47
2023-03-13T14:17:50.808Z,98923.31
2023-03-13T14:20:36.213Z,98905.59
2023-03-13T14:23:06.581Z,98893.69
2023-03-13T14:25:50.721Z,98938.75
2023-03-13T14:28:21.563Z,98942.19
2023-03-13T14:30:50.444Z,98915.50
2023-03-13T14:33:17.455Z,98905.00
2023-03-13T14:35:44.591Z,98857.91
2023-03-13T14:38:25.514Z,98902.88
2023-03-13T14:40:53.999Z,98900.22
2023-03-13T14:43:36.011Z,98849.97
2023-03-13T14:46:26.892Z,98882.25
2023-03-13T14:48:57.052Z,98871.00
2023-03-13T14:51:26.665Z,98853.03
2023-03-13T14:53:58.736Z,98907.53
2023-03-13T14:56:37.165Z,98828.59
2023-03-13T14:59:26.182Z,98831.78
2023-03-13T15:02:12.838Z,98872.91
2023-03-13T15:05:01.796Z,98869.53
2023-03-13T15:07:46.241Z,98883.63
2023-03-13T15:10:24.739Z,98863.75
2023-03-13T15:12:51.736Z,98863.69
2023-03-13T15:15:18.970Z,98847.72
2023-03-13T15:17:45.745Z,98852.09
2023-03-13T15:20:14.889Z,98863.00
2023-03-13T15:22:44.987Z,98846.44
2023-03-13T15:25:20.829Z,98845.41
2023-03-13T15:27:48.588Z,98847.81
2023-03-13T15:30:17.486Z,98856.50
2023-03-13T15:32:46.723Z,98859.16
2023-03-13T15:35:23.217Z,98846.91
2023-03-13T15:37:49.945Z,98767.00
2023-03-13T15:40:17.536Z,98855.13
2023-03-13T15:42:44.060Z,98848.03
2023-03-13T15:45:10.969Z,98841.53
2023-03-13T15:47:37.549Z,98846.47
2023-03-13T15:50:04.551Z,98833.75
2023-03-13T15:52:31.640Z,98783.22
2023-03-13T15:54:58.170Z,98719.09
2023-03-13T15:57:27.125Z,98801.47
2023-03-13T15:59:54.129Z,98784.09
2023-03-13T16:02:22.807Z,98801.09
2023-03-13T16:04:50.371Z,98811.75
2023-03-13T16:07:21.256Z,98802.09
2023-03-13T16:09:48.276Z,98804.25
2023-03-13T16:12:14.911Z,98751.03
2023-03-13T16:14:41.728Z,98807.00
2023-03-13T16:17:17.544Z,98781.50
2023-03-13T16:19:45.215Z,98759.91
2023-03-13T16:22:12.411Z,98779.09
2023-03-13T16:24:39.270Z,98724.59
2023-03-13T16:27:15.634Z,98757.94
2023-03-13T16:29:42.954Z,98785.19
2023-03-13T16:32:17.312Z,98780.22
2023-03-13T16:34:44.118Z,98765.44
2023-03-13T16:37:16.297Z,98781.69
2023-03-13T16:39:43.747Z,98763.16
2023-03-13T16:42:11.307Z,98745.69
2023-03-13T16:44:38.258Z,98771.38
2023-03-13T16:47:22.350Z,98784.75
2023-03-13T16:49:49.247Z,98696.75
2023-03-13T16:52:17.309Z,98777.41
2023-03-13T16:54:44.467Z,98785.78
2023-03-13T16:57:17.722Z,98781.69
2023-03-13T16:59:44.426Z,98690.13
2023-03-13T17:02:16.451Z,98780.59
2023-03-13T17:04:44.994Z,98778.47
2023-03-13T17:07:23.816Z,98775.66
2023-03-13T17:09:51.648Z,98777.09
2023-03-13T17:12:19.270Z,98767.50
2023-03-13T17:14:45.864Z,98676.44
2023-03-13T17:17:16.606Z,98698.13
2023-03-13T17:19:43.834Z,98723.31
2023-03-13T17:22:15.026Z,98778.75
2023-03-13T17:24:42.560Z,98786.09
2023-03-13T17:27:13.042Z,98779.38
2023-03-13T17:29:39.560Z,98783.78
2023-03-13T17:32:06.350Z,98769.97
2023-03-13T17:34:32.918Z,98727.50
2023-03-13T17:37:01.491Z,98762.75
2023-03-13T17:39:28.093Z,98787.34
2023-03-13T17:41:54.655Z,98778.38
2023-03-13T17:44:21.171Z,98787.00
2023-03-13T17:46:48.025Z,98772.78
2023-03-13T17:49:16.434Z,98747.88
2023-03-13T17:51:46.170Z,98800.03
2023-03-13T17:54:15.227Z,98762.72
2023-03-13T17:56:43.844Z,98793.75
2023-03-13T17:59:18.565Z,98820.94
2023-03-13T18:01:45.639Z,98794.03
2023-03-13T18:04:12.564Z,98780.41
2023-03-13T18:06:48.001Z,98800.47
2023-03-13T18:09:17.742Z,98801.91
2023-03-13T18:11:45.246Z,98793.78
2023-03-13T18:14:11.798Z,98795.28
2023-03-13T18:16:43.232Z,98796.53
2023-03-13T18:19:15.598Z,98793.19
2023-03-13T18:21:44.489Z,98633.22
2023-03-13T18:24:12.104Z,98770.66
2023-03-13T18:26:40.474Z,98817.22
2023-03-13T18:29:21.470Z,98793.00
2023-03-13T18:31:48.307Z,98801.16
2023-03-13T18:34:15.763Z,98795.72
2023-03-13T18:36:45.057Z,98804.69
2023-03-13T18:39:17.248Z,98807.81
2023-03-13T18:41:45.032Z,98807.19
2023-03-13T18:44:15.691Z,98781.88
2023-03-13T18:46:43.385Z,98824.66
2023-03-13T18:49:20.256Z,98804.00
2023-03-13T18:51:48.760Z,98828.00
2023-03-13T18:54:15.335Z,98820.06
2023-03-13T18:56:44.435Z,98819.44
2023-03-13T18:59:18.485Z,98824.44
2023-03-13T19:01:47.256Z,98826.09
2023-03-13T19:04:15.830Z,98838.78
2023-03-13T19:06:42.989Z,98843.94
2023-03-13T19:09:41.716Z,98837.09
2023-03-13T19:12:04.978Z,98754.84
2023-03-13T19:14:31.669Z,98848.75
2023-03-13T19:16:58.475Z,98834.16
2023-03-13T19:19:26.112Z,98790.84
2023-03-13T19:21:56.384Z,98855.00
2023-03-13T19:24:26.771Z,98854.78
2023-03-13T19:26:58.898Z,98851.81
2023-03-13T19:29:27.726Z,98851.44
2023-03-13T19:31:54.961Z,98846.84
2023-03-13T19:34:22.466Z,98849.28
2023-03-13T19:36:50.187Z,98845.34
2023-03-13T19:39:23.793Z,98808.06
2023-03-13T19:41:50.710Z,98784.31
2023-03-13T19:44:18.341Z,98822.53
2023-03-13T19:46:45.856Z,98837.16
2023-03-13T19:49:20.622Z,98847.13
2023-03-13T19:51:48.133Z,98858.16
2023-03-13T19:54:15.423Z,98863.69
2023-03-13T19:56:47.290Z,98849.59
2023-03-13T19:59:19.471Z,98844.28
2023-03-13T20:01:46.345Z,98752.56
2023-03-13T20:04:13.727Z,98841.34
2023-03-13T20:06:42.362Z,98846.78
2023-03-13T20:09:11.728Z,98793.25
2023-03-13T20:11:38.884Z,98837.75
2023-03-13T20:14:06.093Z,98810.97
2023-03-13T20:16:34.961Z,98802.00
2023-03-13T20:19:02.208Z,98767.31
2023-03-13T20:21:34.713Z,98801.19
2023-03-13T20:24:01.345Z,98752.56
2023-03-13T20:26:29.279Z,98805.16
2023-03-13T20:28:56.838Z,98808.91
2023-03-13T20:31:27.160Z,98806.00
2023-03-13T20:33:54.922Z,98803.94
2023-03-13T20:36:21.637Z,98803.44
2023-03-13T20:38:48.350Z,98789.69
2023-03-13T20:41:16.291Z,98809.56
2023-03-13T20:43:43.059Z,98803.06
2023-03-13T20:46:09.570Z,98778.56
2023-03-13T20:48:39.389Z,98779.59
2023-03-13T20:51:07.638Z,98796.56
2023-03-13T20:53:39.083Z,98786.31
2023-03-13T20:56:07.499Z,98779.34
2023-03-13T20:58:35.144Z,98791.25
2023-03-13T21:01:03.521Z,98795.63
2023-03-13T21:03:32.764Z,98792.28
2023-03-13T21:05:59.266Z,98788.75
2023-03-13T21:08:25.822Z,98795.09
2023-03-13T21:10:52.337Z,98782.88
2023-03-13T21:13:18.823Z,98707.31
2023-03-13T21:15:45.335Z,98775.31
2023-03-13T21:18:11.813Z,98759.44
2023-03-13T21:20:39.058Z,98779.28
2023-03-13T21:23:05.562Z,98784.81
2023-03-13T21:25:32.019Z,98801.41
2023-03-13T21:27:58.567Z,98788.44
2023-03-13T21:30:25.187Z,98801.81
2023-03-13T21:32:51.837Z,98795.38
2023-03-13T21:35:18.680Z,98790.88
2023-03-13T21:37:45.539Z,98704.78
2023-03-13T21:40:12.911Z,98802.78
2023-03-13T21:42:39.727Z,98810.13
2023-03-13T21:45:07.536Z,98800.59
2023-03-13T21:47:37.088Z,98814.94
2023-03-13T21:50:08.459Z,98830.25
2023-03-13T21:52:40.735Z,98783.31
2023-03-13T21:55:11.483Z,98810.63
2023-03-13T21:57:38.243Z,98782.75
2023-03-13T22:00:06.549Z,98817.00
2023-03-13T22:02:33.000Z,98808.75
2023-03-13T22:04:59.685Z,98749.03
2023-03-13T22:07:26.229Z,98824.13
2023-03-13T22:09:52.883Z,98813.84
2023-03-13T22:12:19.789Z,98802.59
2023-03-13T22:14:46.238Z,98801.69
2023-03-13T22:17:19.436Z,98793.25
2023-03-13T22:19:46.936Z,98789.41
2023-03-13T22:22:13.958Z,98779.84
2023-03-13T22:24:40.611Z,98781.38
2023-03-13T22:27:09.116Z,98775.22
2023-03-13T22:29:41.998Z,98770.97
2023-03-13T22:32:09.462Z,98763.53
2023-03-13T22:34:36.204Z,98727.88
2023-03-13T22:37:09.575Z,98698.53
2023-03-13T22:39:36.662Z,98763.16
2023-03-13T22:42:04.168Z,98746.16
2023-03-13T22:44:30.642Z,98682.97
2023-03-13T22:46:57.108Z,98715.50
2023-03-13T22:49:23.548Z,98700.19
2023-03-13T22:51:50.389Z,98697.13
2023-03-13T22:54:16.850Z,98686.88
2023-03-13T22:56:43.274Z,98599.09
2023-03-13T22:59:09.742Z,98674.81
2023-03-13T23:01:36.422Z,98593.41
2023-03-13T23:04:03.118Z,98638.38
2023-03-13T23:06:29.557Z,98597.13
2023-03-13T23:08:56.215Z,98604.84
2023-03-13T23:11:22.825Z,98607.44
2023-03-13T23:13:49.359Z,98586.84
2023-03-13T23:16:15.961Z,98533.84
2023-03-13T23:18:42.841Z,98571.16
2023-03-13T23:21:11.734Z,98558.66
2023-03-13T23:23:38.760Z,98528.34
2023-03-13T23:26:07.898Z,98539.25
2023-03-13T23:28:36.081Z,98565.34
2023-03-13T23:31:11.595Z,98536.56
2023-03-13T23:33:38.674Z,98554.09
2023-03-13T23:36:10.992Z,98510.53
2023-03-13T23:38:37.562Z,98540.53
2023-03-13T23:41:12.082Z,98543.47
2023-03-13T23:43:39.048Z,98535.53
2023-03-13T23:46:06.354Z,98548.16
2023-03-13T23:48:32.922Z,98539.75
2023-03-13T23:50:59.444Z,98512.22
2023-03-13T23:53:25.918Z,98524.13
2023-03-13T23:55:58.896Z,98467.75
2023-03-13T23:58:25.787Z,98503.91
